createdAt,value
2018-03-04T00:00:59.222Z,99617.36
2018-03-04T00:03:27.604Z,99623.19
2018-03-04T00:05:56.008Z,99620.49
2018-03-04T00:08:24.415Z,99621.83
2018-03-04T00:10:52.798Z,99622.83
2018-03-04T00:13:21.190Z,99611.64
2018-03-04T00:15:49.578Z,99615.30
2018-03-04T00:18:17.962Z,99616.25
2018-03-04T00:20:46.330Z,99609.50
2018-03-04T00:23:14.740Z,99612.97
2018-03-04T00:25:43.129Z,99619.86
2018-03-04T00:28:11.506Z,99622.05
2018-03-04T00:30:39.893Z,99630.50
2018-03-04T00:33:08.262Z,99630.72
2018-03-04T00:35:36.648Z,99635.73
2018-03-04T00:38:05.027Z,99635.92
2018-03-04T00:40:33.406Z,99626.44
2018-03-04T00:43:01.836Z,99636.16
2018-03-04T00:45:30.215Z,99634.73
2018-03-04T00:47:59.461Z,99637.08
2018-03-04T00:50:27.896Z,99612.01
2018-03-04T00:52:57.039Z,99631.50
2018-03-04T00:55:25.408Z,99629.94
2018-03-04T00:57:53.807Z,99633.64
2018-03-04T01:00:22.218Z,99629.50
2018-03-04T01:02:50.657Z,99635.33
2018-03-04T01:05:19.052Z,99631.77
2018-03-04T01:07:47.551Z,99625.65
2018-03-04T01:10:15.993Z,99620.52
2018-03-04T01:12:44.380Z,99622.09
2018-03-04T01:15:12.785Z,99618.02
2018-03-04T01:17:41.153Z,99617.11
2018-03-04T01:20:09.533Z,99623.97
2018-03-04T01:22:37.936Z,99623.32
2018-03-04T01:25:07.083Z,99614.94
2018-03-04T01:27:35.467Z,99615.70
2018-03-04T01:30:03.873Z,99617.20
2018-03-04T01:32:32.240Z,99606.20
2018-03-04T01:35:00.613Z,99604.87
2018-03-04T01:37:29.005Z,99608.75
2018-03-04T01:39:57.410Z,99595.27
2018-03-04T01:42:26.549Z,99600.84
2018-03-04T01:44:54.931Z,99587.68
2018-03-04T01:47:23.306Z,99588.16
2018-03-04T01:49:51.737Z,99591.66
2018-03-04T01:52:20.889Z,99590.13
2018-03-04T01:54:49.278Z,99585.59
2018-03-04T01:57:17.660Z,99587.18
2018-03-04T01:59:46.054Z,99581.94
2018-03-04T02:02:14.457Z,99581.12
2018-03-04T02:04:43.594Z,99579.41
2018-03-04T02:07:11.975Z,99575.08
2018-03-04T02:09:40.413Z,99580.14
2018-03-04T02:12:09.566Z,99581.63
2018-03-04T02:14:37.970Z,99575.38
2018-03-04T02:17:06.484Z,99581.27
2018-03-04T02:19:34.886Z,99579.50
2018-03-04T02:22:03.286Z,99570.56
2018-03-04T02:24:31.679Z,99571.62
2018-03-04T02:27:00.046Z,99567.03
2018-03-04T02:29:28.526Z,99567.27
2018-03-04T02:31:56.899Z,99563.20
2018-03-04T02:34:25.534Z,99559.55
2018-03-04T02:36:53.852Z,99544.34
2018-03-04T02:39:22.224Z,99541.55
2018-03-04T02:41:50.622Z,99537.80
2018-03-04T02:44:19.002Z,99534.58
2018-03-04T02:46:47.392Z,99535.07
2018-03-04T02:49:15.795Z,99537.98
2018-03-04T02:51:44.944Z,99543.61
2018-03-04T02:54:13.341Z,99541.72
2018-03-04T02:56:41.772Z,99537.08
2018-03-04T02:59:10.162Z,99541.11
2018-03-04T03:01:38.544Z,99537.23
2018-03-04T03:04:06.938Z,99534.08
2018-03-04T03:06:35.324Z,99534.41
2018-03-04T03:09:03.706Z,99530.84
2018-03-04T03:11:32.113Z,99525.20
2018-03-04T03:14:01.273Z,99532.23
2018-03-04T03:16:29.647Z,99533.66
2018-03-04T03:18:58.820Z,99532.43
2018-03-04T03:21:27.209Z,99543.93
2018-03-04T03:23:55.606Z,99539.87
2018-03-04T03:26:25.544Z,99539.09
2018-03-04T03:28:54.691Z,99542.73
2018-03-04T03:31:23.092Z,99538.86
2018-03-04T03:33:51.461Z,99544.83
2018-03-04T03:36:19.858Z,99550.75
2018-03-04T03:38:49.003Z,99554.04
2018-03-04T03:41:17.402Z,99553.40
2018-03-04T03:43:45.829Z,99556.69
2018-03-04T03:46:14.197Z,99543.83
2018-03-04T03:48:42.561Z,99547.28
2018-03-04T03:51:10.973Z,99549.25
2018-03-04T03:53:40.113Z,99546.97
2018-03-04T03:56:08.473Z,99538.75
2018-03-04T03:58:36.876Z,99542.20
2018-03-04T04:01:05.247Z,99541.80
2018-03-04T04:03:33.618Z,99542.20
2018-03-04T04:06:02.035Z,99542.16
2018-03-04T04:08:30.469Z,99540.06
2018-03-04T04:10:58.834Z,99534.44
2018-03-04T04:13:28.004Z,99529.47
2018-03-04T04:15:56.389Z,99531.58
2018-03-04T04:18:24.764Z,99530.56
2018-03-04T04:20:53.168Z,99526.00
2018-03-04T04:23:22.340Z,99529.94
2018-03-04T04:25:50.701Z,99526.11
2018-03-04T04:28:19.070Z,99530.71
2018-03-04T04:30:47.498Z,99526.97
2018-03-04T04:33:16.637Z,99531.65
2018-03-04T04:35:45.014Z,99529.19
2018-03-04T04:38:13.421Z,99527.47
2018-03-04T04:40:41.829Z,99529.61
2018-03-04T04:43:10.992Z,99526.82
2018-03-04T04:45:39.374Z,99524.12
2018-03-04T04:48:07.735Z,99524.83
2018-03-04T04:50:36.141Z,99522.19
2018-03-04T04:53:04.513Z,99522.27
2018-03-04T04:55:32.900Z,99512.70
2018-03-04T04:58:01.315Z,99499.95
2018-03-04T05:00:29.709Z,99497.45
2018-03-04T05:02:58.129Z,99494.48
2018-03-04T05:05:26.519Z,99490.47
2018-03-04T05:07:54.913Z,99491.80
2018-03-04T05:10:24.064Z,99477.34
2018-03-04T05:12:52.474Z,99482.72
2018-03-04T05:15:20.910Z,99480.34
2018-03-04T05:17:49.301Z,99480.48
2018-03-04T05:20:17.684Z,99478.61
2018-03-04T05:22:46.074Z,99480.39
2018-03-04T05:25:14.462Z,99480.98
2018-03-04T05:27:42.871Z,99479.25
2018-03-04T05:30:11.246Z,99482.17
2018-03-04T05:32:40.415Z,99479.98
2018-03-04T05:35:08.852Z,99486.27
2018-03-04T05:37:37.246Z,99481.25
2018-03-04T05:40:05.654Z,99483.34
2018-03-04T05:42:34.032Z,99478.70
2018-03-04T05:45:02.432Z,99478.28
2018-03-04T05:47:31.590Z,99485.09
2018-03-04T05:49:59.995Z,99480.73
2018-03-04T05:52:28.394Z,99481.44
2018-03-04T05:54:56.774Z,99481.98
2018-03-04T05:57:25.912Z,99481.05
2018-03-04T05:59:54.324Z,99484.31
2018-03-04T06:02:23.474Z,99487.78
2018-03-04T06:04:51.891Z,99488.64
2018-03-04T06:07:20.286Z,99482.12
2018-03-04T06:09:49.426Z,99486.58
2018-03-04T06:12:19.474Z,99484.91
2018-03-04T06:14:47.846Z,99476.64
2018-03-04T06:17:16.229Z,99477.73
2018-03-04T06:19:44.610Z,99473.18
2018-03-04T06:22:13.023Z,99475.20
2018-03-04T06:24:42.199Z,99480.64
2018-03-04T06:27:11.405Z,99475.30
2018-03-04T06:29:40.570Z,99476.64
2018-03-04T06:32:08.975Z,99482.75
2018-03-04T06:34:38.142Z,99477.23
2018-03-04T06:37:06.529Z,99480.44
2018-03-04T06:39:34.908Z,99475.70
2018-03-04T06:42:03.311Z,99480.87
2018-03-04T06:44:31.729Z,99485.25
2018-03-04T06:47:00.107Z,99479.89
2018-03-04T06:49:28.528Z,99481.53
2018-03-04T06:51:56.926Z,99484.20
2018-03-04T06:54:25.302Z,99485.34
2018-03-04T06:56:53.692Z,99484.85
2018-03-04T06:59:22.945Z,99489.87
2018-03-04T07:01:51.318Z,99489.62
2018-03-04T07:04:19.711Z,99484.18
2018-03-04T07:06:48.110Z,99487.96
2018-03-04T07:09:16.528Z,99490.52
2018-03-04T07:11:44.897Z,99495.72
2018-03-04T07:14:13.306Z,99490.73
2018-03-04T07:16:41.702Z,99483.22
2018-03-04T07:19:10.124Z,99495.38
2018-03-04T07:21:39.256Z,99500.69
2018-03-04T07:24:07.645Z,99496.26
2018-03-04T07:26:36.028Z,99489.34
2018-03-04T07:29:04.465Z,99488.67
2018-03-04T07:31:33.613Z,99483.59
2018-03-04T07:34:01.998Z,99481.30
2018-03-04T07:36:30.405Z,99472.30
2018-03-04T07:38:59.559Z,99473.54
2018-03-04T07:41:27.944Z,99475.12
2018-03-04T07:43:56.346Z,99469.99
2018-03-04T07:46:24.727Z,99473.34
2018-03-04T07:48:53.122Z,99461.09
2018-03-04T07:51:22.301Z,99469.42
2018-03-04T07:53:50.674Z,99464.49
2018-03-04T07:56:19.051Z,99465.45
2018-03-04T07:58:47.438Z,99470.83
2018-03-04T08:01:16.594Z,99463.17
2018-03-04T08:03:44.998Z,99458.53
2018-03-04T08:06:13.362Z,99461.74
2018-03-04T08:08:41.750Z,99459.55
2018-03-04T08:11:10.155Z,99453.05
2018-03-04T08:13:38.532Z,99449.83
2018-03-04T08:16:07.675Z,99453.15
2018-03-04T08:18:36.169Z,99453.32
2018-03-04T08:21:04.508Z,99449.31
2018-03-04T08:23:33.652Z,99449.64
2018-03-04T08:26:19.657Z,99451.05
2018-03-04T08:28:48.048Z,99445.95
2018-03-04T08:31:16.425Z,99443.50
2018-03-04T08:33:44.862Z,99444.59
2018-03-04T08:36:13.240Z,99436.80
2018-03-04T08:38:41.624Z,99436.53
2018-03-04T08:41:10.014Z,99434.23
2018-03-04T08:43:38.417Z,99432.37
2018-03-04T08:46:07.190Z,99439.72
2018-03-04T08:48:35.566Z,99436.98
2018-03-04T08:51:03.981Z,99431.64
2018-03-04T08:53:33.126Z,99434.38
2018-03-04T08:56:01.506Z,99430.72
2018-03-04T08:58:29.938Z,99431.75
2018-03-04T09:00:58.350Z,99431.09
2018-03-04T09:03:26.741Z,99431.58
2018-03-04T09:05:55.986Z,99426.66
2018-03-04T09:08:25.125Z,99423.29
2018-03-04T09:10:53.524Z,99415.25
2018-03-04T09:13:21.914Z,99425.38
2018-03-04T09:15:50.297Z,99427.01
2018-03-04T09:18:18.698Z,99426.47
2018-03-04T09:20:47.086Z,99422.23
2018-03-04T09:23:16.221Z,99423.81
2018-03-04T09:25:44.634Z,99421.92
2018-03-04T09:28:13.002Z,99420.45
2018-03-04T09:30:41.417Z,99421.92
2018-03-04T09:33:10.682Z,99419.60
2018-03-04T09:38:36.042Z,99415.86
2018-03-04T09:41:05.195Z,99419.80
2018-03-04T09:43:33.655Z,99426.07
2018-03-04T09:46:02.038Z,99423.64
2018-03-04T09:48:30.414Z,99415.77
2018-03-04T09:50:58.821Z,99418.97
2018-03-04T09:53:27.525Z,99415.38
2018-03-04T09:55:56.018Z,99412.80
2018-03-04T09:58:25.186Z,99403.38
2018-03-04T10:00:53.593Z,99401.72
2018-03-04T10:03:22.762Z,99391.67
2018-03-04T10:05:52.299Z,99401.47
2018-03-04T10:08:20.840Z,99400.92
2018-03-04T10:10:49.206Z,99404.70
2018-03-04T10:13:17.576Z,99401.88
2018-03-04T10:15:45.951Z,99402.51
2018-03-04T10:18:14.316Z,99394.38
2018-03-04T10:20:42.724Z,99397.97
2018-03-04T10:23:11.107Z,99397.23
2018-03-04T10:25:39.480Z,99398.65
2018-03-04T10:28:07.889Z,99394.45
2018-03-04T10:30:36.291Z,99379.62
2018-03-04T10:33:05.425Z,99375.55
2018-03-04T10:35:33.817Z,99381.88
2018-03-04T10:38:02.185Z,99372.15
2018-03-04T10:40:30.571Z,99369.32
2018-03-04T10:42:58.966Z,99371.95
2018-03-04T10:45:27.342Z,99368.31
2018-03-04T10:47:55.746Z,99365.25
2018-03-04T10:50:24.881Z,99362.42
2018-03-04T10:52:53.289Z,99358.86
2018-03-04T10:55:22.406Z,99356.62
2018-03-04T10:57:50.782Z,99357.40
2018-03-04T11:00:24.937Z,99358.63
2018-03-04T11:02:59.707Z,99351.00
2018-03-04T11:05:28.131Z,99346.92
2018-03-04T11:07:57.256Z,99343.74
2018-03-04T11:10:25.620Z,99349.58
2018-03-04T11:12:54.469Z,99348.14
2018-03-04T11:15:22.878Z,99344.66
2018-03-04T11:17:51.299Z,99348.77
2018-03-04T11:20:19.668Z,99339.61
2018-03-04T11:22:48.033Z,99339.69
2018-03-04T11:25:16.467Z,99338.27
2018-03-04T11:27:44.841Z,99336.73
2018-03-04T11:30:13.202Z,99328.06
2018-03-04T11:32:41.622Z,99327.02
2018-03-04T11:35:10.765Z,99320.14
2018-03-04T11:37:39.129Z,99319.17
2018-03-04T11:40:07.526Z,99303.02
2018-03-04T11:42:35.905Z,99310.02
2018-03-04T11:45:04.309Z,99302.70
2018-03-04T11:47:32.711Z,99288.66
2018-03-04T11:50:01.119Z,99280.52
2018-03-04T11:52:30.218Z,99273.22
2018-03-04T11:54:58.651Z,99271.97
2018-03-04T11:57:27.047Z,99272.00
2018-03-04T11:59:56.194Z,99279.91
2018-03-04T12:02:24.602Z,99286.24
2018-03-04T12:04:52.961Z,99286.06
2018-03-04T12:07:21.385Z,99294.91
2018-03-04T12:09:50.570Z,99289.82
2018-03-04T12:12:19.705Z,99291.16
2018-03-04T12:14:48.083Z,99279.80
2018-03-04T12:17:16.480Z,99280.06
2018-03-04T12:19:44.873Z,99275.24
2018-03-04T12:22:13.248Z,99271.55
2018-03-04T12:24:41.657Z,99258.67
2018-03-04T12:27:10.795Z,99264.08
2018-03-04T12:29:39.210Z,99265.95
2018-03-04T12:32:07.683Z,99261.97
2018-03-04T12:34:36.088Z,99265.96
2018-03-04T12:37:04.605Z,99258.03
2018-03-04T12:39:32.977Z,99259.88
2018-03-04T12:42:01.380Z,99245.48
2018-03-04T12:44:29.838Z,99237.66
2018-03-04T12:46:58.273Z,99243.01
2018-03-04T12:49:26.695Z,99246.07
2018-03-04T12:51:55.102Z,99242.60
2018-03-04T12:54:23.536Z,99227.73
2018-03-04T12:56:51.946Z,99232.12
2018-03-04T12:59:20.314Z,99232.61
2018-03-04T13:01:48.689Z,99233.33
2018-03-04T13:04:17.097Z,99227.16
2018-03-04T13:06:45.489Z,99239.67
2018-03-04T13:09:13.853Z,99242.88
2018-03-04T13:11:42.354Z,99238.58
2018-03-04T13:14:10.760Z,99238.25
2018-03-04T13:16:39.902Z,99239.86
2018-03-04T13:19:08.291Z,99243.04
2018-03-04T13:21:36.693Z,99232.57
2018-03-04T13:24:05.122Z,99231.44
2018-03-04T13:26:33.490Z,99226.72
2018-03-04T13:29:02.120Z,99237.80
2018-03-04T13:31:30.526Z,99240.73
2018-03-04T13:33:59.754Z,99239.56
2018-03-04T13:36:28.150Z,99239.13
2018-03-04T13:38:56.521Z,99241.22
2018-03-04T13:41:24.918Z,99239.19
2018-03-04T13:43:53.297Z,99222.61
2018-03-04T13:46:21.733Z,99209.16
2018-03-04T13:48:50.860Z,99200.52
2018-03-04T13:51:19.269Z,99192.50
2018-03-04T13:53:47.650Z,99195.70
2018-03-04T13:56:16.037Z,99196.56
2018-03-04T13:58:44.434Z,99192.07
2018-03-04T14:01:12.797Z,99188.95
2018-03-04T14:03:41.201Z,99195.85
2018-03-04T14:06:10.462Z,99194.91
2018-03-04T14:08:39.658Z,99191.58
2018-03-04T14:11:08.023Z,99186.86
2018-03-04T14:13:36.384Z,99178.91
2018-03-04T14:16:04.772Z,99172.88
2018-03-04T14:18:33.166Z,99173.81
2018-03-04T14:21:01.561Z,99174.98
2018-03-04T14:23:29.969Z,99168.11
2018-03-04T14:25:59.286Z,99170.03
2018-03-04T14:28:27.780Z,99176.44
2018-03-04T14:30:57.059Z,99180.50
2018-03-04T14:33:25.481Z,99183.57
2018-03-04T14:35:53.875Z,99191.30
2018-03-04T14:38:22.273Z,99188.58
2018-03-04T14:40:51.422Z,99183.59
2018-03-04T14:43:19.847Z,99184.80
2018-03-04T14:45:48.224Z,99182.14
2018-03-04T14:48:17.374Z,99190.95
2018-03-04T14:50:45.747Z,99190.55
2018-03-04T14:53:14.180Z,99189.75
2018-03-04T14:55:42.590Z,99192.24
2018-03-04T14:58:10.968Z,99181.57
2018-03-04T15:00:39.366Z,99176.08
2018-03-04T15:03:07.773Z,99177.57
2018-03-04T15:05:36.161Z,99168.85
2018-03-04T15:08:04.719Z,99158.98
2018-03-04T15:10:33.201Z,99157.80
2018-03-04T15:13:01.605Z,99150.78
2018-03-04T15:15:30.022Z,99151.66
2018-03-04T15:17:58.412Z,99159.64
2018-03-04T15:20:26.830Z,99143.09
2018-03-04T15:22:55.210Z,99140.93
2018-03-04T15:25:23.594Z,99132.16
2018-03-04T15:27:51.998Z,99134.69
2018-03-04T15:30:21.153Z,99126.81
2018-03-04T15:32:49.509Z,99121.58
2018-03-04T15:35:17.898Z,99123.64
2018-03-04T15:37:46.324Z,99120.00
2018-03-04T15:40:15.575Z,99119.05
2018-03-04T15:42:44.030Z,99114.48
2018-03-04T15:45:12.418Z,99124.05
2018-03-04T15:47:40.826Z,99118.55
2018-03-04T15:50:09.191Z,99108.23
2018-03-04T15:52:37.682Z,99099.67
2018-03-04T15:55:06.049Z,99101.70
2018-03-04T15:57:34.439Z,99098.40
2018-03-04T16:00:02.862Z,99097.10
2018-03-04T16:02:32.056Z,99090.27
2018-03-04T16:05:01.217Z,99092.83
2018-03-04T16:07:29.579Z,99093.92
2018-03-04T16:09:58.012Z,99084.33
2018-03-04T16:12:27.156Z,99081.36
2018-03-04T16:14:55.565Z,99083.97
2018-03-04T16:17:23.940Z,99087.65
2018-03-04T16:19:52.363Z,99099.66
2018-03-04T16:22:20.808Z,99097.16
2018-03-04T16:24:49.182Z,99096.52
2018-03-04T16:27:17.607Z,99095.14
2018-03-04T16:29:46.770Z,99092.22
2018-03-04T16:32:15.150Z,99097.33
2018-03-04T16:34:43.559Z,99094.22
2018-03-04T16:37:11.957Z,99096.95
2018-03-04T16:39:40.318Z,99089.25
2018-03-04T16:42:08.747Z,99094.21
2018-03-04T16:44:37.114Z,99100.17
2018-03-04T16:47:05.479Z,99100.75
2018-03-04T16:49:33.876Z,99099.47
2018-03-04T16:52:02.293Z,99095.78
2018-03-04T16:54:31.456Z,99093.21
2018-03-04T16:56:59.850Z,99096.08
2018-03-04T16:59:29.095Z,99104.88
2018-03-04T17:01:57.512Z,99110.30
2018-03-04T17:04:25.969Z,99107.97
2018-03-04T17:06:54.375Z,99113.79
2018-03-04T17:09:22.745Z,99119.27
2018-03-04T17:11:51.184Z,99113.86
2018-03-04T17:14:19.548Z,99126.16
2018-03-04T17:16:48.706Z,99131.72
2018-03-04T17:19:17.071Z,99121.81
2018-03-04T17:21:45.436Z,99113.69
2018-03-04T17:24:13.965Z,99111.64
2018-03-04T17:26:42.342Z,99106.48
2018-03-04T17:29:11.765Z,99106.24
2018-03-04T17:31:40.907Z,99104.22
2018-03-04T17:34:10.143Z,99101.74
2018-03-04T17:36:39.313Z,99101.87
2018-03-04T17:39:07.762Z,99100.58
2018-03-04T17:41:36.206Z,99099.88
2018-03-04T17:44:04.600Z,99087.62
2018-03-04T17:46:32.986Z,99086.39
2018-03-04T17:49:01.400Z,99084.69
2018-03-04T17:51:29.786Z,99080.38
2018-03-04T17:53:58.243Z,99074.81
2018-03-04T17:56:26.605Z,99073.72
2018-03-04T17:58:55.006Z,99073.63
2018-03-04T18:01:23.370Z,99072.82
2018-03-04T18:03:51.741Z,99077.49
2018-03-04T18:06:20.148Z,99071.55
2018-03-04T18:08:48.607Z,99069.32
2018-03-04T18:11:17.775Z,99067.20
2018-03-04T18:13:46.221Z,99065.98
2018-03-04T18:16:14.586Z,99066.91
2018-03-04T18:18:43.018Z,99067.84
2018-03-04T18:21:11.508Z,99061.84
2018-03-04T18:23:39.894Z,99065.21
2018-03-04T18:26:08.302Z,99055.98
2018-03-04T18:28:36.658Z,99052.98
2018-03-04T18:31:05.024Z,99049.73
2018-03-04T18:33:33.414Z,99050.55
2018-03-04T18:36:01.829Z,99055.50
2018-03-04T18:38:30.229Z,99051.02
2018-03-04T18:40:58.638Z,99055.04
2018-03-04T18:43:27.094Z,99052.65
2018-03-04T18:45:56.226Z,99043.26
2018-03-04T18:48:24.614Z,99053.48
2018-03-04T18:50:53.055Z,99049.62
2018-03-04T18:53:22.220Z,99048.40
2018-03-04T18:55:50.627Z,99050.64
2018-03-04T18:58:19.801Z,99053.11
2018-03-04T19:00:48.204Z,99057.28
2018-03-04T19:03:17.338Z,99053.47
2018-03-04T19:05:45.714Z,99051.08
2018-03-04T19:08:14.099Z,99043.72
2018-03-04T19:10:42.461Z,99040.29
2018-03-04T19:13:11.168Z,99035.58
2018-03-04T19:15:39.578Z,99033.86
2018-03-04T19:18:07.948Z,99026.32
2018-03-04T19:20:36.392Z,99026.88
2018-03-04T19:23:04.808Z,99022.25
2018-03-04T19:25:33.281Z,99019.57
2018-03-04T19:28:01.724Z,99010.93
2018-03-04T19:30:30.132Z,99003.34
2018-03-04T19:32:58.513Z,99011.34
2018-03-04T19:35:26.882Z,99014.78
2018-03-04T19:37:55.460Z,99013.47
2018-03-04T19:40:23.853Z,99006.98
2018-03-04T19:42:52.353Z,98996.24
2018-03-04T19:45:20.764Z,98992.31
2018-03-04T19:47:49.936Z,98996.66
2018-03-04T19:50:18.359Z,99004.51
2018-03-04T19:52:46.731Z,99009.69
2018-03-04T19:55:15.114Z,99017.45
2018-03-04T19:57:43.600Z,99020.27
2018-03-04T20:00:11.982Z,99025.53
2018-03-04T20:02:40.370Z,99025.97
2018-03-04T20:05:08.863Z,99021.58
2018-03-04T20:07:37.218Z,99028.17
2018-03-04T20:10:05.590Z,99023.86
2018-03-04T20:12:34.038Z,99021.99
2018-03-04T20:15:02.366Z,99028.50
2018-03-04T20:17:30.772Z,99024.59
2018-03-04T20:19:59.167Z,99017.70
2018-03-04T20:22:28.311Z,99024.22
2018-03-04T20:24:56.873Z,99024.64
2018-03-04T20:27:25.243Z,99021.69
2018-03-04T20:29:54.418Z,99014.62
2018-03-04T20:32:22.827Z,99018.84
2018-03-04T20:34:51.198Z,99016.80
2018-03-04T20:37:20.381Z,99018.25
2018-03-04T20:39:49.520Z,99011.92
2018-03-04T20:42:17.987Z,99016.36
2018-03-04T20:44:46.708Z,99014.75
2018-03-04T20:47:15.096Z,99020.20
2018-03-04T20:49:43.506Z,99014.06
2018-03-04T20:52:12.686Z,99011.12
2018-03-04T20:54:41.114Z,99009.70
2018-03-04T20:57:09.521Z,99001.87
2018-03-04T20:59:37.970Z,99009.63
2018-03-04T21:02:06.336Z,99009.66
2018-03-04T21:04:34.758Z,99014.00
2018-03-04T21:07:03.189Z,99004.33
2018-03-04T21:09:31.568Z,99010.51
2018-03-04T21:11:59.984Z,99013.39
2018-03-04T21:14:28.350Z,99012.17
2018-03-04T21:16:56.913Z,99001.61
2018-03-04T21:19:25.712Z,98999.55
2018-03-04T21:21:54.097Z,98998.53
2018-03-04T21:24:22.498Z,98998.25
2018-03-04T21:26:50.883Z,98995.07
2018-03-04T21:29:19.314Z,99005.36
2018-03-04T21:31:47.727Z,98999.10
2018-03-04T21:34:16.122Z,99000.96
2018-03-04T21:36:44.501Z,98992.44
2018-03-04T21:39:12.874Z,99001.39
2018-03-04T21:41:41.281Z,98995.84
2018-03-04T21:44:09.688Z,98987.31
2018-03-04T21:46:38.912Z,98983.32
2018-03-04T21:49:07.288Z,98983.44
2018-03-04T21:51:35.670Z,98983.95
2018-03-04T21:54:04.041Z,98985.91
2018-03-04T21:56:32.477Z,98973.70
2018-03-04T21:59:00.863Z,98974.96
2018-03-04T22:01:29.295Z,98977.41
2018-03-04T22:03:57.712Z,98986.06
2018-03-04T22:06:26.125Z,98982.48
2018-03-04T22:08:54.524Z,98987.09
2018-03-04T22:11:22.918Z,98982.39
2018-03-04T22:13:51.357Z,98987.32
2018-03-04T22:16:19.740Z,98986.29
2018-03-04T22:18:48.128Z,98990.81
2018-03-04T22:21:16.547Z,98995.12
2018-03-04T22:23:44.944Z,98994.19
2018-03-04T22:26:13.346Z,98992.67
2018-03-04T22:28:41.746Z,98989.67
2018-03-04T22:31:10.201Z,98990.08
2018-03-04T22:33:39.352Z,98995.83
2018-03-04T22:36:07.788Z,98990.83
2018-03-04T22:38:36.916Z,98998.42
2018-03-04T22:41:05.316Z,98999.25
2018-03-04T22:43:33.728Z,99000.77
2018-03-04T22:46:02.845Z,98997.59
2018-03-04T22:48:31.227Z,98994.73
2018-03-04T22:50:59.601Z,98998.39
2018-03-04T22:53:28.115Z,98995.66
2018-03-04T22:55:56.515Z,99001.18
2018-03-04T22:58:24.892Z,99000.37
2018-03-04T23:00:53.314Z,99002.73
2018-03-04T23:03:21.689Z,98995.55
2018-03-04T23:05:50.073Z,98999.22
2018-03-04T23:08:18.462Z,98997.81
2018-03-04T23:10:46.846Z,99003.22
2018-03-04T23:13:15.233Z,98995.03
2018-03-04T23:15:43.632Z,98984.66
2018-03-04T23:18:12.040Z,98986.31
2018-03-04T23:20:41.176Z,98989.80
2018-03-04T23:23:09.610Z,98993.79
2018-03-04T23:25:37.977Z,98995.23
2018-03-04T23:28:06.354Z,98997.80
2018-03-04T23:30:34.751Z,98994.59
2018-03-04T23:33:03.887Z,98984.55
2018-03-04T23:35:32.271Z,98993.25
2018-03-04T23:38:00.662Z,98981.67
2018-03-04T23:40:29.053Z,98976.62
2018-03-04T23:42:57.449Z,98956.08
2018-03-04T23:45:25.821Z,98953.31
2018-03-04T23:47:54.218Z,98939.22
2018-03-04T23:50:22.612Z,98943.18
2018-03-04T23:52:51.774Z,98953.78
2018-03-04T23:55:20.226Z,98968.77
2018-03-04T23:57:48.590Z,98962.58
